createdAt,value
2023-01-02T00:00:20.563Z,19.80
2023-01-02T00:05:44.224Z,18.00
2023-01-02T00:10:47.407Z,19.10
2023-01-02T00:15:50.623Z,19.60
2023-01-02T00:20:54.536Z,21.80
2023-01-02T00:25:57.752Z,21.90
2023-01-02T00:31:13.345Z,21.10
2023-01-02T00:36:16.871Z,20.00
2023-01-02T00:41:21.568Z,20.60
2023-01-02T00:46:24.801Z,17.60
2023-01-02T00:51:28.049Z,18.20
2023-01-02T00:56:31.196Z,20.10
2023-01-02T01:01:34.552Z,18.00
2023-01-02T01:06:37.810Z,19.20
2023-01-02T01:11:40.888Z,18.90
2023-01-02T01:16:44.070Z,24.00
2023-01-02T01:21:47.224Z,20.00
2023-01-02T01:26:50.396Z,18.40
2023-01-02T01:31:53.683Z,18.90
2023-01-02T01:36:56.889Z,18.20
2023-01-02T01:42:01.428Z,22.40
2023-01-02T01:47:04.818Z,18.50
2023-01-02T01:52:16.199Z,19.40
2023-01-02T01:57:31.899Z,17.70
2023-01-02T02:02:35.901Z,16.90
2023-01-02T02:07:44.041Z,19.30
2023-01-02T02:12:47.226Z,20.30
2023-01-02T02:18:00.576Z,20.80
2023-01-02T02:23:06.687Z,19.30
2023-01-02T02:28:29.278Z,19.40
2023-01-02T02:33:58.534Z,19.10
2023-01-02T02:39:23.281Z,18.00
2023-01-02T02:44:42.835Z,17.90
2023-01-02T02:49:52.589Z,21.10
2023-01-02T02:55:05.640Z,18.80
2023-01-02T03:00:14.949Z,20.30
2023-01-02T03:05:33.978Z,19.60
2023-01-02T03:11:00.045Z,21.40
2023-01-02T03:16:39.938Z,14.60
2023-01-02T03:21:48.495Z,14.90
2023-01-02T03:26:58.548Z,19.10
2023-01-02T03:32:05.105Z,20.20
2023-01-02T03:37:16.053Z,18.70
2023-01-02T03:43:12.335Z,18.60
2023-01-02T03:48:53.792Z,17.90
2023-01-02T03:53:59.125Z,21.00
2023-01-02T03:59:27.988Z,20.30
2023-01-02T04:04:51.503Z,20.90
2023-01-02T04:09:55.898Z,19.90
2023-01-02T04:15:03.503Z,21.50
2023-01-02T04:20:13.395Z,20.50
2023-01-02T04:25:18.321Z,19.20
2023-01-02T04:30:21.645Z,19.20
2023-01-02T04:35:25.475Z,16.80
2023-01-02T04:40:30.964Z,19.20
2023-01-02T04:45:34.410Z,20.00
2023-01-02T04:50:37.589Z,20.50
2023-01-02T04:55:41.312Z,21.30
2023-01-02T05:00:44.467Z,20.20
2023-01-02T05:05:48.159Z,18.10
2023-01-02T05:10:51.239Z,20.30
2023-01-02T05:15:57.137Z,18.30
2023-01-02T05:21:06.058Z,20.10
2023-01-02T05:26:12.971Z,19.60
2023-01-02T05:31:16.216Z,17.50
2023-01-02T05:36:20.373Z,22.80
2023-01-02T05:41:24.340Z,23.40
2023-01-02T05:46:28.051Z,24.00
2023-01-02T05:51:31.267Z,19.80
2023-01-02T05:56:34.540Z,18.20
2023-01-02T06:01:38.707Z,18.30
2023-01-02T06:06:41.934Z,20.40
2023-01-02T06:11:45.164Z,16.50
2023-01-02T06:16:48.499Z,19.30
2023-01-02T06:21:51.701Z,17.20
2023-01-02T06:26:55.919Z,16.60
2023-01-02T06:31:59.128Z,16.40
2023-01-02T06:37:07.825Z,16.30
2023-01-02T06:42:14.139Z,16.50
2023-01-02T06:47:17.468Z,17.10
2023-01-02T06:52:20.948Z,15.90
2023-01-02T06:57:24.091Z,16.30
2023-01-02T07:02:27.242Z,17.00
2023-01-02T07:07:30.640Z,17.90
2023-01-02T07:12:37.718Z,14.80
2023-01-02T07:17:40.944Z,19.70
2023-01-02T07:22:50.841Z,15.80
2023-01-02T07:27:53.985Z,15.80
2023-01-02T07:32:57.213Z,14.50
2023-01-02T07:38:00.313Z,16.10
2023-01-02T07:43:03.508Z,15.70
2023-01-02T07:48:06.789Z,16.50
2023-01-02T07:53:09.950Z,14.60
2023-01-02T07:58:13.140Z,14.60
2023-01-02T08:03:16.429Z,22.20
2023-01-02T08:08:19.684Z,17.40
2023-01-02T08:13:22.904Z,19.70
2023-01-02T08:18:26.138Z,23.60
2023-01-02T08:23:29.794Z,22.10
2023-01-02T08:28:34.224Z,19.10
2023-01-02T08:33:37.364Z,21.20
2023-01-02T08:38:40.821Z,19.20
2023-01-02T08:43:44.041Z,19.50
2023-01-02T08:48:47.188Z,21.80
2023-01-02T08:53:50.407Z,16.60
2023-01-02T08:58:56.214Z,19.00
2023-01-02T09:04:03.726Z,18.90
2023-01-02T09:09:17.341Z,22.00
2023-01-02T09:14:22.488Z,19.90
2023-01-02T09:19:27.281Z,20.90
2023-01-02T09:24:33.514Z,17.70
2023-01-02T09:29:39.639Z,21.60
2023-01-02T09:34:42.762Z,18.90
2023-01-02T09:39:45.968Z,21.10
2023-01-02T09:44:54.889Z,18.90
2023-01-02T09:50:05.899Z,17.20
2023-01-02T09:55:31.812Z,17.90
2023-01-02T10:00:38.943Z,17.40
2023-01-02T10:05:48.385Z,16.00
2023-01-02T10:11:31.711Z,20.20
2023-01-02T10:16:43.116Z,19.80
2023-01-02T10:21:49.969Z,21.40
2023-01-02T10:26:54.608Z,19.00
2023-01-02T10:32:04.928Z,19.20
2023-01-02T10:37:14.743Z,20.40
2023-01-02T10:42:19.749Z,20.70
2023-01-02T10:47:23.158Z,20.60
2023-01-02T10:52:49.055Z,20.20
2023-01-02T10:57:52.470Z,20.30
2023-01-02T11:03:05.816Z,20.90
2023-01-02T11:08:15.729Z,18.70
2023-01-02T11:13:21.512Z,18.70
2023-01-02T11:18:31.945Z,21.60
2023-01-02T11:23:38.851Z,19.00
2023-01-02T11:28:42.217Z,16.60
2023-01-02T11:33:52.633Z,21.30
2023-01-02T11:38:59.278Z,20.10
2023-01-02T11:44:03.455Z,21.70
2023-01-02T11:49:22.189Z,20.90
2023-01-02T11:54:39.912Z,21.30
2023-01-02T11:59:48.109Z,21.80
2023-01-02T12:04:51.187Z,21.90
2023-01-02T12:10:09.518Z,19.80
2023-01-02T12:15:25.158Z,21.80
2023-01-02T12:20:44.549Z,17.30
2023-01-02T12:26:11.936Z,17.70
2023-01-02T12:31:39.321Z,15.80
2023-01-02T12:36:51.125Z,14.70
2023-01-02T12:42:00.750Z,16.30
2023-01-02T12:47:14.277Z,12.60
2023-01-02T12:52:28.537Z,15.00
2023-01-02T12:58:02.540Z,13.10
2023-01-02T13:03:29.197Z,14.10
2023-01-02T13:08:56.820Z,14.60
2023-01-02T13:14:03.370Z,13.10
2023-01-02T13:24:40.072Z,14.50
2023-01-02T13:29:45.815Z,14.90
2023-01-02T13:34:55.344Z,14.30
2023-01-02T13:40:02.696Z,11.80
2023-01-02T13:45:18.409Z,14.50
2023-01-02T13:50:33.603Z,14.70
2023-01-02T13:55:36.838Z,13.90
2023-01-02T14:00:45.028Z,12.30
2023-01-02T14:06:00.490Z,13.30
2023-01-02T14:11:09.767Z,14.50
2023-01-02T14:16:27.962Z,14.30
2023-01-02T14:21:38.276Z,14.30
2023-01-02T14:26:42.480Z,15.00
2023-01-02T14:31:47.442Z,16.30
2023-01-02T14:36:53.299Z,14.90
2023-01-02T14:42:15.024Z,16.80
2023-01-02T14:47:39.890Z,17.40
2023-01-02T14:52:49.669Z,18.20
2023-01-02T14:57:54.712Z,17.40
2023-01-02T15:03:42.625Z,18.80
2023-01-02T15:08:50.549Z,20.40
2023-01-02T15:14:04.452Z,20.10
2023-01-02T15:19:16.932Z,26.10
2023-01-02T15:24:30.238Z,18.40
2023-01-02T15:29:33.508Z,20.00
2023-01-02T15:34:36.780Z,20.50
2023-01-02T15:39:42.947Z,20.00
2023-01-02T15:45:05.008Z,22.00
2023-01-02T15:50:18.377Z,24.40
2023-01-02T15:55:21.561Z,20.00
2023-01-02T16:00:44.979Z,19.20
2023-01-02T16:05:52.187Z,20.70
2023-01-02T16:11:01.692Z,21.10
2023-01-02T16:16:15.506Z,25.70
2023-01-02T16:21:21.446Z,19.20
2023-01-02T16:26:33.233Z,21.10
2023-01-02T16:31:58.066Z,26.00
2023-01-02T16:37:16.547Z,43.20
2023-01-02T16:42:38.038Z,29.00
2023-01-02T16:47:43.957Z,25.50
2023-01-02T16:52:48.791Z,26.30
2023-01-02T16:57:51.989Z,39.70
2023-01-02T17:02:55.429Z,29.50
2023-01-02T17:07:58.756Z,25.00
2023-01-02T17:13:03.256Z,20.40
2023-01-02T17:18:06.454Z,21.10
2023-01-02T17:23:09.612Z,21.80
2023-01-02T17:28:13.317Z,19.40
2023-01-02T17:33:17.584Z,17.90
2023-01-02T17:38:20.852Z,20.90
2023-01-02T17:43:25.448Z,21.30
2023-01-02T17:48:28.641Z,18.10
2023-01-02T17:53:31.868Z,22.60
2023-01-02T17:58:35.132Z,22.00
2023-01-02T18:03:38.441Z,19.80
2023-01-02T18:08:42.288Z,20.00
2023-01-02T18:13:48.535Z,21.40
2023-01-02T18:18:53.432Z,24.70
2023-01-02T18:23:59.687Z,23.40
2023-01-02T18:29:09.745Z,26.90
2023-01-02T18:34:46.528Z,19.80
2023-01-02T18:39:43.048Z,20.40
2023-01-02T18:44:47.551Z,25.70
2023-01-02T18:49:51.121Z,24.80
2023-01-02T18:55:02.238Z,21.70
2023-01-02T19:00:20.567Z,24.20
2023-01-02T19:05:29.752Z,28.90
2023-01-02T19:10:39.004Z,25.20
2023-01-02T19:16:00.053Z,21.90
2023-01-02T19:21:09.273Z,22.00
2023-01-02T19:26:27.117Z,20.60
2023-01-02T19:31:42.946Z,19.60
2023-01-02T19:36:46.137Z,20.60
2023-01-02T19:42:07.987Z,18.20
2023-01-02T19:47:12.591Z,17.30
2023-01-02T19:52:18.458Z,19.00
2023-01-02T19:57:22.862Z,19.30
2023-01-02T20:02:27.514Z,19.50
2023-01-02T20:07:31.384Z,17.60
2023-01-02T20:12:34.862Z,17.20
2023-01-02T20:17:40.015Z,18.30
2023-01-02T20:22:43.783Z,16.40
2023-01-02T20:27:47.654Z,18.20
2023-01-02T20:32:54.647Z,18.20
2023-01-02T20:37:58.026Z,16.00
2023-01-02T20:43:01.184Z,16.50
2023-01-02T20:48:04.775Z,18.40
2023-01-02T20:53:07.932Z,18.30
2023-01-02T20:58:11.048Z,17.80
2023-01-02T21:03:14.421Z,18.40
2023-01-02T21:08:17.914Z,17.10
2023-01-02T21:13:21.002Z,16.60
2023-01-02T21:18:40.135Z,16.90
2023-01-02T21:23:44.824Z,17.40
2023-01-02T21:28:48.650Z,18.80
2023-01-02T21:33:51.842Z,18.40
2023-01-02T21:38:55.713Z,17.30
2023-01-02T21:43:58.954Z,17.40
2023-01-02T21:49:02.103Z,18.00
2023-01-02T21:54:05.270Z,19.50
2023-01-02T21:59:08.399Z,20.90
2023-01-02T22:04:11.530Z,18.20
2023-01-02T22:09:15.088Z,18.50
2023-01-02T22:14:18.288Z,15.10
2023-01-02T22:19:21.877Z,16.00
2023-01-02T22:24:29.221Z,16.80
2023-01-02T22:30:09.781Z,19.60
2023-01-02T22:34:58.138Z,18.20
2023-01-02T22:40:01.992Z,20.90
2023-01-02T22:45:07.457Z,18.50
2023-01-02T22:50:24.264Z,18.30
2023-01-02T22:55:27.649Z,21.40
2023-01-02T23:00:30.805Z,19.10
2023-01-02T23:05:33.986Z,19.20
2023-01-02T23:10:37.471Z,20.10
2023-01-02T23:16:00.858Z,17.80
2023-01-02T23:26:17.647Z,18.00
2023-01-02T23:31:21.336Z,17.70
2023-01-02T23:36:25.040Z,16.90
2023-01-02T23:41:28.134Z,17.50
2023-01-02T23:46:31.281Z,18.00
2023-01-02T23:51:35.321Z,17.40
2023-01-02T23:56:41.008Z,19.80
